sensor_id;sensor_type;location;lat;lon;timestamp;temperature;humidity
19680;DHT22;9989;48.962;9.182;2023-03-25T00:01:06;10.20;99.90
19680;DHT22;9989;48.962;9.182;2023-03-25T00:03:38;10.20;99.90
19680;DHT22;9989;48.962;9.182;2023-03-25T00:06:07;10.20;99.90
19680;DHT22;9989;48.962;9.182;2023-03-25T00:08:33;10.10;99.90
19680;DHT22;9989;48.962;9.182;2023-03-25T00:11:01;10.10;99.90
19680;DHT22;9989;48.962;9.182;2023-03-25T00:13:28;10.20;99.90
19680;DHT22;9989;48.962;9.182;2023-03-25T00:15:56;10.10;99.90
19680;DHT22;9989;48.962;9.182;2023-03-25T00:18:23;10.10;99.90
19680;DHT22;9989;48.962;9.182;2023-03-25T00:20:51;10.10;99.90
19680;DHT22;9989;48.962;9.182;2023-03-25T00:23:20;10.10;99.90
19680;DHT22;9989;48.962;9.182;2023-03-25T00:25:47;10.10;99.90
19680;DHT22;9989;48.962;9.182;2023-03-25T00:28:14;10.20;99.90
19680;DHT22;9989;48.962;9.182;2023-03-25T00:30:41;10.20;99.90
19680;DHT22;9989;48.962;9.182;2023-03-25T00:33:07;10.20;99.90
19680;DHT22;9989;48.962;9.182;2023-03-25T00:35:36;10.30;99.90
19680;DHT22;9989;48.962;9.182;2023-03-25T00:38:02;10.30;99.90
19680;DHT22;9989;48.962;9.182;2023-03-25T00:40:30;10.30;99.90
19680;DHT22;9989;48.962;9.182;2023-03-25T00:43:00;10.30;99.90
19680;DHT22;9989;48.962;9.182;2023-03-25T00:45:27;10.40;99.90
19680;DHT22;9989;48.962;9.182;2023-03-25T00:47:52;10.40;99.90
19680;DHT22;9989;48.962;9.182;2023-03-25T00:50:18;10.30;99.90
19680;DHT22;9989;48.962;9.182;2023-03-25T00:52:44;10.30;99.90
19680;DHT22;9989;48.962;9.182;2023-03-25T00:55:09;10.40;99.90
19680;DHT22;9989;48.962;9.182;2023-03-25T00:57:35;10.40;99.90
19680;DHT22;9989;48.962;9.182;2023-03-25T01:00:03;10.40;99.90
19680;DHT22;9989;48.962;9.182;2023-03-25T01:02:30;10.30;99.90
19680;DHT22;9989;48.962;9.182;2023-03-25T01:04:58;10.30;99.90
19680;DHT22;9989;48.962;9.182;2023-03-25T01:07:24;10.30;99.90
19680;DHT22;9989;48.962;9.182;2023-03-25T01:09:50;10.30;99.90
19680;DHT22;9989;48.962;9.182;2023-03-25T01:12:16;10.30;99.90
19680;DHT22;9989;48.962;9.182;2023-03-25T01:14:43;10.30;99.90
19680;DHT22;9989;48.962;9.182;2023-03-25T01:17:10;10.30;99.90
19680;DHT22;9989;48.962;9.182;2023-03-25T01:19:35;10.30;99.90
19680;DHT22;9989;48.962;9.182;2023-03-25T01:22:01;10.20;99.90
19680;DHT22;9989;48.962;9.182;2023-03-25T01:24:26;10.20;99.90
19680;DHT22;9989;48.962;9.182;2023-03-25T01:26:52;10.20;99.90
19680;DHT22;9989;48.962;9.182;2023-03-25T01:29:19;10.10;99.90
19680;DHT22;9989;48.962;9.182;2023-03-25T01:31:45;10.00;99.90
19680;DHT22;9989;48.962;9.182;2023-03-25T01:34:11;10.00;99.90
19680;DHT22;9989;48.962;9.182;2023-03-25T01:36:38;10.00;99.90
19680;DHT22;9989;48.962;9.182;2023-03-25T01:39:12;10.00;99.90
19680;DHT22;9989;48.962;9.182;2023-03-25T01:41:41;10.00;99.90
19680;DHT22;9989;48.962;9.182;2023-03-25T01:45:09;9.90;99.90
19680;DHT22;9989;48.962;9.182;2023-03-25T01:46:58;9.80;99.90
19680;DHT22;9989;48.962;9.182;2023-03-25T01:49:46;9.80;99.90
19680;DHT22;9989;48.962;9.182;2023-03-25T01:52:18;9.80;99.90
19680;DHT22;9989;48.962;9.182;2023-03-25T01:54:46;9.70;99.90
19680;DHT22;9989;48.962;9.182;2023-03-25T01:57:18;9.70;99.90
19680;DHT22;9989;48.962;9.182;2023-03-25T01:59:45;9.70;99.90
19680;DHT22;9989;48.962;9.182;2023-03-25T02:02:12;9.70;99.90
19680;DHT22;9989;48.962;9.182;2023-03-25T02:05:01;9.70;99.90
19680;DHT22;9989;48.962;9.182;2023-03-25T02:07:31;9.70;99.90
19680;DHT22;9989;48.962;9.182;2023-03-25T02:10:04;9.70;99.90
19680;DHT22;9989;48.962;9.182;2023-03-25T02:12:31;9.70;99.90
19680;DHT22;9989;48.962;9.182;2023-03-25T02:15:01;9.60;99.90
19680;DHT22;9989;48.962;9.182;2023-03-25T02:31:10;9.60;99.90
19680;DHT22;9989;48.962;9.182;2023-03-25T02:41:57;9.50;99.90
19680;DHT22;9989;48.962;9.182;2023-03-25T02:44:34;9.40;99.90
19680;DHT22;9989;48.962;9.182;2023-03-25T02:47:05;9.30;99.90
19680;DHT22;9989;48.962;9.182;2023-03-25T02:49:45;9.10;99.90
19680;DHT22;9989;48.962;9.182;2023-03-25T02:52:27;9.00;99.90
19680;DHT22;9989;48.962;9.182;2023-03-25T02:54:55;8.80;99.90
19680;DHT22;9989;48.962;9.182;2023-03-25T02:57:24;8.60;99.90
19680;DHT22;9989;48.962;9.182;2023-03-25T02:59:53;8.50;99.90
19680;DHT22;9989;48.962;9.182;2023-03-25T03:02:21;8.40;99.90
19680;DHT22;9989;48.962;9.182;2023-03-25T03:04:55;8.40;99.90
19680;DHT22;9989;48.962;9.182;2023-03-25T03:07:27;8.30;99.90
19680;DHT22;9989;48.962;9.182;2023-03-25T03:13:15;8.10;99.90
19680;DHT22;9989;48.962;9.182;2023-03-25T03:15:52;8.00;99.90
19680;DHT22;9989;48.962;9.182;2023-03-25T03:21:13;7.90;99.90
19680;DHT22;9989;48.962;9.182;2023-03-25T03:26:52;7.80;99.90
19680;DHT22;9989;48.962;9.182;2023-03-25T03:29:30;7.80;99.90
19680;DHT22;9989;48.962;9.182;2023-03-25T03:32:09;7.80;99.90
19680;DHT22;9989;48.962;9.182;2023-03-25T03:34:56;7.80;99.90
19680;DHT22;9989;48.962;9.182;2023-03-25T03:37:35;7.90;99.90
19680;DHT22;9989;48.962;9.182;2023-03-25T03:40:12;8.00;99.90
19680;DHT22;9989;48.962;9.182;2023-03-25T03:45:16;8.10;99.90
19680;DHT22;9989;48.962;9.182;2023-03-25T03:47:47;8.10;99.90
19680;DHT22;9989;48.962;9.182;2023-03-25T03:50:21;8.10;99.90
19680;DHT22;9989;48.962;9.182;2023-03-25T03:53:05;8.10;99.90
19680;DHT22;9989;48.962;9.182;2023-03-25T03:55:40;8.20;99.90
19680;DHT22;9989;48.962;9.182;2023-03-25T03:58:11;8.20;99.90
19680;DHT22;9989;48.962;9.182;2023-03-25T04:01:10;8.20;99.90
19680;DHT22;9989;48.962;9.182;2023-03-25T04:03:57;8.20;99.90
19680;DHT22;9989;48.962;9.182;2023-03-25T04:06:29;8.20;99.90
19680;DHT22;9989;48.962;9.182;2023-03-25T04:09:04;8.20;99.90
19680;DHT22;9989;48.962;9.182;2023-03-25T04:11:36;8.20;99.90
19680;DHT22;9989;48.962;9.182;2023-03-25T04:14:05;8.20;99.90
19680;DHT22;9989;48.962;9.182;2023-03-25T04:16:31;8.30;99.90
19680;DHT22;9989;48.962;9.182;2023-03-25T04:18:57;8.30;99.90
19680;DHT22;9989;48.962;9.182;2023-03-25T04:21:23;8.30;99.90
19680;DHT22;9989;48.962;9.182;2023-03-25T04:23:49;8.40;99.90
19680;DHT22;9989;48.962;9.182;2023-03-25T04:26:16;8.40;99.90
19680;DHT22;9989;48.962;9.182;2023-03-25T04:28:42;8.50;99.90
19680;DHT22;9989;48.962;9.182;2023-03-25T04:31:13;8.50;99.90
19680;DHT22;9989;48.962;9.182;2023-03-25T04:33:41;8.60;99.90
19680;DHT22;9989;48.962;9.182;2023-03-25T04:36:12;8.60;99.90
19680;DHT22;9989;48.962;9.182;2023-03-25T04:38:38;8.70;99.90
19680;DHT22;9989;48.962;9.182;2023-03-25T04:41:05;8.70;99.90
19680;DHT22;9989;48.962;9.182;2023-03-25T04:43:31;8.70;99.90
19680;DHT22;9989;48.962;9.182;2023-03-25T04:45:58;8.70;99.90
19680;DHT22;9989;48.962;9.182;2023-03-25T04:48:29;8.80;99.90
19680;DHT22;9989;48.962;9.182;2023-03-25T04:50:59;8.80;99.90
19680;DHT22;9989;48.962;9.182;2023-03-25T04:53:26;8.80;99.90
19680;DHT22;9989;48.962;9.182;2023-03-25T04:55:52;8.80;99.90
19680;DHT22;9989;48.962;9.182;2023-03-25T04:58:18;8.80;99.90
19680;DHT22;9989;48.962;9.182;2023-03-25T05:00:45;8.80;99.90
19680;DHT22;9989;48.962;9.182;2023-03-25T05:03:13;8.80;99.90
19680;DHT22;9989;48.962;9.182;2023-03-25T05:05:40;8.80;99.90
19680;DHT22;9989;48.962;9.182;2023-03-25T05:08:06;8.80;99.90
19680;DHT22;9989;48.962;9.182;2023-03-25T05:10:32;8.80;99.90
19680;DHT22;9989;48.962;9.182;2023-03-25T05:13:04;8.80;99.90
19680;DHT22;9989;48.962;9.182;2023-03-25T05:15:32;8.80;99.90
19680;DHT22;9989;48.962;9.182;2023-03-25T05:18:13;8.90;99.90
19680;DHT22;9989;48.962;9.182;2023-03-25T05:20:42;8.90;99.90
19680;DHT22;9989;48.962;9.182;2023-03-25T05:23:12;8.90;99.90
19680;DHT22;9989;48.962;9.182;2023-03-25T05:25:43;8.90;99.90
19680;DHT22;9989;48.962;9.182;2023-03-25T05:28:09;9.00;99.90
19680;DHT22;9989;48.962;9.182;2023-03-25T05:30:42;9.00;99.90
19680;DHT22;9989;48.962;9.182;2023-03-25T05:33:11;9.00;99.90
19680;DHT22;9989;48.962;9.182;2023-03-25T05:35:41;9.00;99.90
19680;DHT22;9989;48.962;9.182;2023-03-25T05:38:07;9.00;99.90
19680;DHT22;9989;48.962;9.182;2023-03-25T05:40:34;9.00;99.90
19680;DHT22;9989;48.962;9.182;2023-03-25T05:43:00;9.00;99.90
19680;DHT22;9989;48.962;9.182;2023-03-25T05:45:27;9.10;99.90
19680;DHT22;9989;48.962;9.182;2023-03-25T05:47:53;9.10;99.90
19680;DHT22;9989;48.962;9.182;2023-03-25T05:50:18;9.00;99.90
19680;DHT22;9989;48.962;9.182;2023-03-25T05:52:44;9.00;99.90
19680;DHT22;9989;48.962;9.182;2023-03-25T05:55:16;9.00;99.90
19680;DHT22;9989;48.962;9.182;2023-03-25T05:57:42;8.90;99.90
19680;DHT22;9989;48.962;9.182;2023-03-25T06:00:09;8.80;99.90
19680;DHT22;9989;48.962;9.182;2023-03-25T06:02:35;8.80;99.90
19680;DHT22;9989;48.962;9.182;2023-03-25T06:05:06;8.90;99.90
19680;DHT22;9989;48.962;9.182;2023-03-25T06:07:34;9.00;99.90
19680;DHT22;9989;48.962;9.182;2023-03-25T06:10:02;9.00;99.90
19680;DHT22;9989;48.962;9.182;2023-03-25T06:12:29;9.10;99.90
19680;DHT22;9989;48.962;9.182;2023-03-25T06:14:57;9.10;99.90
19680;DHT22;9989;48.962;9.182;2023-03-25T06:17:22;9.20;99.90
19680;DHT22;9989;48.962;9.182;2023-03-25T06:19:49;9.30;99.90
19680;DHT22;9989;48.962;9.182;2023-03-25T06:22:15;9.30;99.90
19680;DHT22;9989;48.962;9.182;2023-03-25T06:24:41;9.40;99.90
19680;DHT22;9989;48.962;9.182;2023-03-25T06:27:12;9.40;99.90
19680;DHT22;9989;48.962;9.182;2023-03-25T06:29:38;9.50;99.90
19680;DHT22;9989;48.962;9.182;2023-03-25T06:32:04;9.60;99.90
19680;DHT22;9989;48.962;9.182;2023-03-25T06:34:30;9.70;99.90
19680;DHT22;9989;48.962;9.182;2023-03-25T06:37:00;9.80;99.90
19680;DHT22;9989;48.962;9.182;2023-03-25T06:39:27;9.80;99.90
19680;DHT22;9989;48.962;9.182;2023-03-25T06:41:58;9.90;99.90
19680;DHT22;9989;48.962;9.182;2023-03-25T06:44:25;9.90;99.90
19680;DHT22;9989;48.962;9.182;2023-03-25T06:46:51;10.00;99.90
19680;DHT22;9989;48.962;9.182;2023-03-25T06:49:16;9.90;99.90
19680;DHT22;9989;48.962;9.182;2023-03-25T06:51:42;9.90;99.90
19680;DHT22;9989;48.962;9.182;2023-03-25T06:54:08;9.80;99.90
19680;DHT22;9989;48.962;9.182;2023-03-25T06:56:33;9.80;99.90
19680;DHT22;9989;48.962;9.182;2023-03-25T06:58:59;9.70;99.90
19680;DHT22;9989;48.962;9.182;2023-03-25T07:01:24;9.70;99.90
19680;DHT22;9989;48.962;9.182;2023-03-25T07:03:50;9.70;99.90
19680;DHT22;9989;48.962;9.182;2023-03-25T07:06:18;9.80;99.90
19680;DHT22;9989;48.962;9.182;2023-03-25T07:08:45;9.90;99.90
19680;DHT22;9989;48.962;9.182;2023-03-25T07:11:11;10.00;99.90
19680;DHT22;9989;48.962;9.182;2023-03-25T07:13:37;10.10;99.90
19680;DHT22;9989;48.962;9.182;2023-03-25T07:16:03;10.10;99.90
19680;DHT22;9989;48.962;9.182;2023-03-25T07:18:29;10.10;99.90
19680;DHT22;9989;48.962;9.182;2023-03-25T07:20:54;10.10;99.90
19680;DHT22;9989;48.962;9.182;2023-03-25T07:23:20;10.20;99.90
19680;DHT22;9989;48.962;9.182;2023-03-25T07:25:45;10.20;99.90
19680;DHT22;9989;48.962;9.182;2023-03-25T07:28:11;10.20;99.90
19680;DHT22;9989;48.962;9.182;2023-03-25T07:30:37;10.20;99.90
19680;DHT22;9989;48.962;9.182;2023-03-25T07:33:02;10.20;99.90
19680;DHT22;9989;48.962;9.182;2023-03-25T07:35:28;10.30;99.90
19680;DHT22;9989;48.962;9.182;2023-03-25T07:37:53;10.30;99.90
19680;DHT22;9989;48.962;9.182;2023-03-25T07:40:19;10.30;99.90
19680;DHT22;9989;48.962;9.182;2023-03-25T07:42:44;10.40;99.90
19680;DHT22;9989;48.962;9.182;2023-03-25T07:45:10;10.40;99.90
19680;DHT22;9989;48.962;9.182;2023-03-25T07:47:36;10.40;99.90
19680;DHT22;9989;48.962;9.182;2023-03-25T07:50:02;10.40;99.90
19680;DHT22;9989;48.962;9.182;2023-03-25T07:52:28;10.50;99.90
19680;DHT22;9989;48.962;9.182;2023-03-25T07:54:54;10.80;99.90
19680;DHT22;9989;48.962;9.182;2023-03-25T07:57:19;10.90;99.90
19680;DHT22;9989;48.962;9.182;2023-03-25T07:59:45;10.80;99.90
19680;DHT22;9989;48.962;9.182;2023-03-25T08:02:14;10.80;99.90
19680;DHT22;9989;48.962;9.182;2023-03-25T08:04:40;10.70;99.90
19680;DHT22;9989;48.962;9.182;2023-03-25T08:07:06;10.80;99.90
19680;DHT22;9989;48.962;9.182;2023-03-25T08:09:32;10.80;99.90
19680;DHT22;9989;48.962;9.182;2023-03-25T08:11:57;10.90;99.90
19680;DHT22;9989;48.962;9.182;2023-03-25T08:14:23;10.80;99.90
19680;DHT22;9989;48.962;9.182;2023-03-25T08:16:49;10.90;99.90
19680;DHT22;9989;48.962;9.182;2023-03-25T08:19:15;10.80;99.90
19680;DHT22;9989;48.962;9.182;2023-03-25T08:21:40;10.80;99.90
19680;DHT22;9989;48.962;9.182;2023-03-25T08:24:06;10.90;99.90
19680;DHT22;9989;48.962;9.182;2023-03-25T08:26:33;10.90;99.90
19680;DHT22;9989;48.962;9.182;2023-03-25T08:28:59;10.90;99.90
19680;DHT22;9989;48.962;9.182;2023-03-25T08:31:28;11.00;99.90
19680;DHT22;9989;48.962;9.182;2023-03-25T08:33:56;11.00;99.90
19680;DHT22;9989;48.962;9.182;2023-03-25T08:36:22;11.00;99.90
19680;DHT22;9989;48.962;9.182;2023-03-25T08:38:49;11.10;99.90
19680;DHT22;9989;48.962;9.182;2023-03-25T08:41:14;11.30;99.90
19680;DHT22;9989;48.962;9.182;2023-03-25T08:43:40;11.50;99.90
19680;DHT22;9989;48.962;9.182;2023-03-25T08:46:06;11.60;99.90
19680;DHT22;9989;48.962;9.182;2023-03-25T08:48:32;11.80;99.90
19680;DHT22;9989;48.962;9.182;2023-03-25T08:50:57;12.00;99.90
19680;DHT22;9989;48.962;9.182;2023-03-25T08:53:23;12.20;99.90
19680;DHT22;9989;48.962;9.182;2023-03-25T08:55:53;12.10;99.90
19680;DHT22;9989;48.962;9.182;2023-03-25T08:58:19;12.00;99.90
19680;DHT22;9989;48.962;9.182;2023-03-25T09:00:45;11.70;99.90
19680;DHT22;9989;48.962;9.182;2023-03-25T09:03:11;11.50;99.90
19680;DHT22;9989;48.962;9.182;2023-03-25T09:05:37;11.40;99.90
19680;DHT22;9989;48.962;9.182;2023-03-25T09:08:04;11.10;99.90
19680;DHT22;9989;48.962;9.182;2023-03-25T09:10:30;10.80;99.90
19680;DHT22;9989;48.962;9.182;2023-03-25T09:12:55;10.60;99.90
19680;DHT22;9989;48.962;9.182;2023-03-25T09:15:21;10.40;99.90
19680;DHT22;9989;48.962;9.182;2023-03-25T09:17:47;10.30;99.90
19680;DHT22;9989;48.962;9.182;2023-03-25T09:20:13;10.40;99.90
19680;DHT22;9989;48.962;9.182;2023-03-25T09:22:39;10.50;99.90
19680;DHT22;9989;48.962;9.182;2023-03-25T09:25:06;10.70;99.90
19680;DHT22;9989;48.962;9.182;2023-03-25T09:27:32;10.70;99.90
19680;DHT22;9989;48.962;9.182;2023-03-25T09:29:58;10.80;99.90
19680;DHT22;9989;48.962;9.182;2023-03-25T09:32:24;10.70;99.90
19680;DHT22;9989;48.962;9.182;2023-03-25T09:34:50;10.80;99.90
19680;DHT22;9989;48.962;9.182;2023-03-25T09:37:16;10.70;99.90
19680;DHT22;9989;48.962;9.182;2023-03-25T09:39:42;10.80;99.90
19680;DHT22;9989;48.962;9.182;2023-03-25T09:45:13;11.20;99.90
19680;DHT22;9989;48.962;9.182;2023-03-25T09:47:51;11.40;99.90
19680;DHT22;9989;48.962;9.182;2023-03-25T09:50:21;11.20;99.90
19680;DHT22;9989;48.962;9.182;2023-03-25T09:53:11;11.00;99.90
19680;DHT22;9989;48.962;9.182;2023-03-25T09:55:43;10.90;99.90
19680;DHT22;9989;48.962;9.182;2023-03-25T10:04:14;10.20;99.90
19680;DHT22;9989;48.962;9.182;2023-03-25T10:15:32;10.00;99.90
19680;DHT22;9989;48.962;9.182;2023-03-25T10:21:18;10.10;99.90
19680;DHT22;9989;48.962;9.182;2023-03-25T10:26:33;10.40;99.90
19680;DHT22;9989;48.962;9.182;2023-03-25T10:29:09;10.50;99.90
19680;DHT22;9989;48.962;9.182;2023-03-25T10:31:42;10.50;99.90
19680;DHT22;9989;48.962;9.182;2023-03-25T10:34:16;10.60;99.90
19680;DHT22;9989;48.962;9.182;2023-03-25T10:36:52;10.70;99.90
19680;DHT22;9989;48.962;9.182;2023-03-25T10:39:23;10.70;99.90
19680;DHT22;9989;48.962;9.182;2023-03-25T10:41:54;10.80;99.90
19680;DHT22;9989;48.962;9.182;2023-03-25T10:44:24;11.00;99.90
19680;DHT22;9989;48.962;9.182;2023-03-25T10:46:59;11.30;99.90
19680;DHT22;9989;48.962;9.182;2023-03-25T10:49:28;11.70;99.90
19680;DHT22;9989;48.962;9.182;2023-03-25T10:51:54;11.80;99.90
19680;DHT22;9989;48.962;9.182;2023-03-25T10:54:27;12.00;99.90
19680;DHT22;9989;48.962;9.182;2023-03-25T10:56:59;12.00;99.90
19680;DHT22;9989;48.962;9.182;2023-03-25T10:59:44;12.20;99.90
19680;DHT22;9989;48.962;9.182;2023-03-25T11:02:19;12.60;99.90
19680;DHT22;9989;48.962;9.182;2023-03-25T11:04:46;13.10;99.90
19680;DHT22;9989;48.962;9.182;2023-03-25T11:07:30;13.50;99.90
19680;DHT22;9989;48.962;9.182;2023-03-25T11:12:39;14.60;99.90
19680;DHT22;9989;48.962;9.182;2023-03-25T11:15:13;14.90;99.90
19680;DHT22;9989;48.962;9.182;2023-03-25T11:17:40;15.10;99.90
19680;DHT22;9989;48.962;9.182;2023-03-25T11:20:16;15.30;99.90
19680;DHT22;9989;48.962;9.182;2023-03-25T11:22:47;15.40;99.90
19680;DHT22;9989;48.962;9.182;2023-03-25T11:25:22;15.50;99.90
19680;DHT22;9989;48.962;9.182;2023-03-25T11:27:54;15.40;99.90
19680;DHT22;9989;48.962;9.182;2023-03-25T11:30:21;15.00;99.90
19680;DHT22;9989;48.962;9.182;2023-03-25T11:33:05;14.70;99.90
19680;DHT22;9989;48.962;9.182;2023-03-25T11:35:36;14.50;99.90
19680;DHT22;9989;48.962;9.182;2023-03-25T11:38:14;14.40;99.90
19680;DHT22;9989;48.962;9.182;2023-03-25T11:40:52;14.60;99.90
19680;DHT22;9989;48.962;9.182;2023-03-25T11:43:20;14.80;99.90
19680;DHT22;9989;48.962;9.182;2023-03-25T11:45:47;15.00;99.90
19680;DHT22;9989;48.962;9.182;2023-03-25T11:48:20;15.20;99.90
19680;DHT22;9989;48.962;9.182;2023-03-25T11:50:55;15.40;99.90
19680;DHT22;9989;48.962;9.182;2023-03-25T11:53:25;15.40;99.90
19680;DHT22;9989;48.962;9.182;2023-03-25T11:55:56;15.30;99.90
19680;DHT22;9989;48.962;9.182;2023-03-25T11:58:28;15.20;99.90
19680;DHT22;9989;48.962;9.182;2023-03-25T12:01:27;15.40;99.90
19680;DHT22;9989;48.962;9.182;2023-03-25T12:04:05;15.50;99.90
19680;DHT22;9989;48.962;9.182;2023-03-25T12:06:31;16.00;99.90
19680;DHT22;9989;48.962;9.182;2023-03-25T12:09:07;16.30;98.60
19680;DHT22;9989;48.962;9.182;2023-03-25T12:11:53;16.70;97.90
19680;DHT22;9989;48.962;9.182;2023-03-25T12:20:17;18.10;93.80
19680;DHT22;9989;48.962;9.182;2023-03-25T12:34:36;19.00;89.90
19680;DHT22;9989;48.962;9.182;2023-03-25T12:43:05;16.10;93.30
19680;DHT22;9989;48.962;9.182;2023-03-25T12:51:14;15.10;97.50
19680;DHT22;9989;48.962;9.182;2023-03-25T12:56:32;17.20;93.40
19680;DHT22;9989;48.962;9.182;2023-03-25T13:04:41;17.90;91.50
19680;DHT22;9989;48.962;9.182;2023-03-25T13:07:15;19.00;90.20
19680;DHT22;9989;48.962;9.182;2023-03-25T13:12:40;19.20;84.40
19680;DHT22;9989;48.962;9.182;2023-03-25T13:15:39;19.40;85.80
19680;DHT22;9989;48.962;9.182;2023-03-25T13:20:50;20.10;81.00
19680;DHT22;9989;48.962;9.182;2023-03-25T13:23:20;20.00;81.40
19680;DHT22;9989;48.962;9.182;2023-03-25T13:25:59;20.90;79.40
19680;DHT22;9989;48.962;9.182;2023-03-25T13:28:31;21.70;75.80
19680;DHT22;9989;48.962;9.182;2023-03-25T13:31:05;21.70;70.80
19680;DHT22;9989;48.962;9.182;2023-03-25T13:33:35;21.00;70.10
19680;DHT22;9989;48.962;9.182;2023-03-25T13:36:24;21.00;69.70
19680;DHT22;9989;48.962;9.182;2023-03-25T13:38:53;21.40;66.70
19680;DHT22;9989;48.962;9.182;2023-03-25T13:44:34;20.60;68.80
19680;DHT22;9989;48.962;9.182;2023-03-25T13:47:04;20.30;68.60
19680;DHT22;9989;48.962;9.182;2023-03-25T13:52:05;20.10;68.00
19680;DHT22;9989;48.962;9.182;2023-03-25T13:54:38;20.00;69.10
19680;DHT22;9989;48.962;9.182;2023-03-25T14:03:03;20.00;67.10
19680;DHT22;9989;48.962;9.182;2023-03-25T14:05:50;20.00;65.70
19680;DHT22;9989;48.962;9.182;2023-03-25T14:11:26;17.90;71.10
19680;DHT22;9989;48.962;9.182;2023-03-25T14:13:59;17.00;75.90
19680;DHT22;9989;48.962;9.182;2023-03-25T14:16:32;16.30;80.30
19680;DHT22;9989;48.962;9.182;2023-03-25T14:19:12;15.80;83.80
19680;DHT22;9989;48.962;9.182;2023-03-25T14:21:45;15.90;86.00
19680;DHT22;9989;48.962;9.182;2023-03-25T14:24:28;16.50;85.30
19680;DHT22;9989;48.962;9.182;2023-03-25T14:27:06;16.90;84.20
19680;DHT22;9989;48.962;9.182;2023-03-25T14:29:42;17.30;81.50
19680;DHT22;9989;48.962;9.182;2023-03-25T14:34:41;17.70;79.00
19680;DHT22;9989;48.962;9.182;2023-03-25T14:37:09;18.00;78.60
19680;DHT22;9989;48.962;9.182;2023-03-25T14:39:38;18.80;77.00
19680;DHT22;9989;48.962;9.182;2023-03-25T14:44:39;19.80;71.70
19680;DHT22;9989;48.962;9.182;2023-03-25T14:52:46;18.90;71.40
19680;DHT22;9989;48.962;9.182;2023-03-25T14:57:41;16.70;78.70
19680;DHT22;9989;48.962;9.182;2023-03-25T15:00:09;15.90;82.80
19680;DHT22;9989;48.962;9.182;2023-03-25T15:02:40;15.50;84.30
19680;DHT22;9989;48.962;9.182;2023-03-25T15:13:49;17.60;76.90
19680;DHT22;9989;48.962;9.182;2023-03-25T15:16:36;18.20;73.30
19680;DHT22;9989;48.962;9.182;2023-03-25T15:24:31;19.70;64.20
19680;DHT22;9989;48.962;9.182;2023-03-25T15:29:56;19.00;65.70
19680;DHT22;9989;48.962;9.182;2023-03-25T15:35:33;20.10;63.50
19680;DHT22;9989;48.962;9.182;2023-03-25T15:55:08;21.00;59.00
19680;DHT22;9989;48.962;9.182;2023-03-25T15:57:41;21.30;59.20
19680;DHT22;9989;48.962;9.182;2023-03-25T16:00:28;21.20;58.00
19680;DHT22;9989;48.962;9.182;2023-03-25T16:05:31;19.70;62.60
19680;DHT22;9989;48.962;9.182;2023-03-25T16:07:59;19.80;63.10
19680;DHT22;9989;48.962;9.182;2023-03-25T16:10:31;19.50;63.70
19680;DHT22;9989;48.962;9.182;2023-03-25T16:13:06;18.80;64.80
19680;DHT22;9989;48.962;9.182;2023-03-25T16:15:35;17.90;68.10
19680;DHT22;9989;48.962;9.182;2023-03-25T16:18:04;16.80;71.40
19680;DHT22;9989;48.962;9.182;2023-03-25T16:20:32;16.20;74.40
19680;DHT22;9989;48.962;9.182;2023-03-25T16:22:59;15.80;75.50
19680;DHT22;9989;48.962;9.182;2023-03-25T16:25:39;15.50;76.50
19680;DHT22;9989;48.962;9.182;2023-03-25T16:28:11;15.20;77.40
19680;DHT22;9989;48.962;9.182;2023-03-25T16:30:40;15.00;78.40
19680;DHT22;9989;48.962;9.182;2023-03-25T16:35:59;14.50;81.30
19680;DHT22;9989;48.962;9.182;2023-03-25T16:38:26;14.30;82.40
19680;DHT22;9989;48.962;9.182;2023-03-25T16:41:02;14.10;82.60
19680;DHT22;9989;48.962;9.182;2023-03-25T16:43:29;13.90;81.20
19680;DHT22;9989;48.962;9.182;2023-03-25T16:46:00;13.80;82.50
19680;DHT22;9989;48.962;9.182;2023-03-25T16:48:35;13.70;83.40
19680;DHT22;9989;48.962;9.182;2023-03-25T16:53:54;13.50;84.30
19680;DHT22;9989;48.962;9.182;2023-03-25T16:56:23;13.40;85.00
19680;DHT22;9989;48.962;9.182;2023-03-25T17:01:27;13.30;86.60
19680;DHT22;9989;48.962;9.182;2023-03-25T17:04:20;13.20;87.30
19680;DHT22;9989;48.962;9.182;2023-03-25T17:06:53;13.20;87.80
19680;DHT22;9989;48.962;9.182;2023-03-25T17:09:23;13.20;88.40
19680;DHT22;9989;48.962;9.182;2023-03-25T17:11:55;13.10;88.80
19680;DHT22;9989;48.962;9.182;2023-03-25T17:14:26;13.00;88.90
19680;DHT22;9989;48.962;9.182;2023-03-25T17:16:53;13.00;88.90
19680;DHT22;9989;48.962;9.182;2023-03-25T17:19:20;13.00;89.20
19680;DHT22;9989;48.962;9.182;2023-03-25T17:22:03;12.90;90.00
19680;DHT22;9989;48.962;9.182;2023-03-25T17:24:36;12.80;90.10
19680;DHT22;9989;48.962;9.182;2023-03-25T17:27:06;12.70;90.30
19680;DHT22;9989;48.962;9.182;2023-03-25T17:29:53;12.70;90.40
19680;DHT22;9989;48.962;9.182;2023-03-25T17:32:19;12.60;90.50
19680;DHT22;9989;48.962;9.182;2023-03-25T17:34:55;12.60;90.80
19680;DHT22;9989;48.962;9.182;2023-03-25T17:37:21;12.50;90.60
19680;DHT22;9989;48.962;9.182;2023-03-25T17:39:49;12.50;91.00
19680;DHT22;9989;48.962;9.182;2023-03-25T17:42:23;12.50;90.80
19680;DHT22;9989;48.962;9.182;2023-03-25T17:44:51;12.50;90.90
19680;DHT22;9989;48.962;9.182;2023-03-25T17:47:18;12.40;91.20
19680;DHT22;9989;48.962;9.182;2023-03-25T17:49:44;12.40;91.40
19680;DHT22;9989;48.962;9.182;2023-03-25T17:52:10;12.40;91.40
19680;DHT22;9989;48.962;9.182;2023-03-25T17:54:36;12.40;91.50
19680;DHT22;9989;48.962;9.182;2023-03-25T17:57:22;12.40;91.70
19680;DHT22;9989;48.962;9.182;2023-03-25T17:59:47;12.30;91.90
19680;DHT22;9989;48.962;9.182;2023-03-25T18:02:14;12.30;92.00
19680;DHT22;9989;48.962;9.182;2023-03-25T18:04:40;12.30;92.10
19680;DHT22;9989;48.962;9.182;2023-03-25T18:07:06;12.30;92.20
19680;DHT22;9989;48.962;9.182;2023-03-25T18:09:32;12.20;92.40
19680;DHT22;9989;48.962;9.182;2023-03-25T18:11:58;12.20;92.50
19680;DHT22;9989;48.962;9.182;2023-03-25T18:14:25;12.20;92.60
19680;DHT22;9989;48.962;9.182;2023-03-25T18:16:53;12.20;92.50
19680;DHT22;9989;48.962;9.182;2023-03-25T18:19:24;12.20;92.80
19680;DHT22;9989;48.962;9.182;2023-03-25T18:21:50;12.20;93.00
19680;DHT22;9989;48.962;9.182;2023-03-25T18:24:16;12.20;93.00
19680;DHT22;9989;48.962;9.182;2023-03-25T18:26:42;12.10;93.20
19680;DHT22;9989;48.962;9.182;2023-03-25T18:29:17;12.20;93.20
19680;DHT22;9989;48.962;9.182;2023-03-25T18:31:46;12.10;93.40
19680;DHT22;9989;48.962;9.182;2023-03-25T18:34:13;12.10;93.40
19680;DHT22;9989;48.962;9.182;2023-03-25T18:36:40;12.00;93.70
19680;DHT22;9989;48.962;9.182;2023-03-25T18:39:09;12.00;94.00
19680;DHT22;9989;48.962;9.182;2023-03-25T18:41:35;12.00;94.40
19680;DHT22;9989;48.962;9.182;2023-03-25T18:44:01;12.00;94.80
19680;DHT22;9989;48.962;9.182;2023-03-25T18:46:27;11.90;95.50
19680;DHT22;9989;48.962;9.182;2023-03-25T18:48:52;11.80;95.30
19680;DHT22;9989;48.962;9.182;2023-03-25T18:51:20;11.80;95.50
19680;DHT22;9989;48.962;9.182;2023-03-25T18:53:46;11.70;95.60
19680;DHT22;9989;48.962;9.182;2023-03-25T18:56:13;11.70;95.70
19680;DHT22;9989;48.962;9.182;2023-03-25T18:58:38;11.70;95.80
19680;DHT22;9989;48.962;9.182;2023-03-25T19:01:11;11.70;96.10
19680;DHT22;9989;48.962;9.182;2023-03-25T19:03:37;11.70;96.00
19680;DHT22;9989;48.962;9.182;2023-03-25T19:06:10;11.60;95.70